Time;durP1;ratioP1;P1;durP2;ratioP2;P2;SDS_P1;SDS_P2;PMS_P1;PMS_P2;Temp;Humidity;BMP_temperature;BMP_pressure;BME280_temperature;BME280_humidity;BME280_pressure;Samples;Min_cycle;Max_cycle;Signal;HPM_P1;HPM_P2
2022/12/09 00:01:44;;;;;;;57.38;33.55;;;3.90;83.30;;;;;;5054967;28;20032;-14
2022/12/09 00:04:10;;;;;;;55.50;31.92;;;4.00;83.30;;;;;;5055400;28;20016;-14
2022/12/09 00:06:36;;;;;;;54.45;31.80;;;4.00;83.40;;;;;;5037132;28;20602;-14
2022/12/09 00:09:02;;;;;;;50.83;30.60;;;4.00;83.50;;;;;;5054730;28;20035;-14
2022/12/09 00:11:28;;;;;;;49.35;29.98;;;4.00;83.50;;;;;;5053243;28;20067;-12
2022/12/09 00:13:56;;;;;;;50.25;30.95;;;4.00;83.60;;;;;;5054610;28;20084;-13
2022/12/09 00:16:22;;;;;;;48.47;29.40;;;4.10;83.60;;;;;;5054757;28;20073;-16
2022/12/09 00:18:49;;;;;;;52.70;30.35;;;4.10;83.60;;;;;;5054279;28;20465;-17
2022/12/09 00:21:18;;;;;;;53.28;31.15;;;4.20;83.60;;;;;;5054794;28;20116;-17
2022/12/09 00:23:45;;;;;;;44.15;26.58;;;4.20;83.60;;;;;;5054369;28;20021;-16
2022/12/09 00:26:11;;;;;;;38.67;24.15;;;4.20;83.60;;;;;;5054401;28;20427;-17
2022/12/09 00:28:38;;;;;;;41.53;25.63;;;4.20;83.80;;;;;;5036601;28;20025;-16
2022/12/09 00:31:05;;;;;;;50.92;30.92;;;4.30;84.10;;;;;;5036427;28;20032;-16
2022/12/09 00:33:34;;;;;;;47.08;28.00;;;4.30;84.30;;;;;;5054574;28;20116;-16
2022/12/09 00:36:09;;;;;;;41.22;25.13;;;4.40;84.20;;;;;;5054622;28;20048;-13
2022/12/09 00:38:36;;;;;;;48.17;29.33;;;4.40;84.20;;;;;;5054263;28;20021;-16
2022/12/09 00:41:02;;;;;;;42.35;26.98;;;4.40;84.20;;;;;;5054000;28;20025;-16
2022/12/09 00:43:28;;;;;;;49.53;29.95;;;4.40;84.20;;;;;;5054137;28;20104;-16
2022/12/09 00:45:53;;;;;;;33.95;21.65;;;4.40;84.40;;;;;;5054076;28;20071;-15
2022/12/09 00:48:19;;;;;;;35.45;21.13;;;4.40;84.30;;;;;;5054023;28;20025;-16
2022/12/09 00:50:45;;;;;;;43.38;25.25;;;4.40;84.40;;;;;;5053926;28;20036;-16
2022/12/09 00:53:11;;;;;;;44.30;27.10;;;4.40;84.50;;;;;;5053536;28;20575;-17
2022/12/09 00:55:37;;;;;;;42.15;27.60;;;4.50;84.50;;;;;;5054065;28;20071;-15
2022/12/09 00:58:04;;;;;;;44.78;26.15;;;4.50;84.30;;;;;;5054240;28;20071;-17
2022/12/09 01:00:30;;;;;;;40.58;23.85;;;4.50;84.30;;;;;;5054146;28;20035;-18
2022/12/09 01:02:56;;;;;;;39.25;23.02;;;4.50;84.40;;;;;;5053511;28;20515;-17
2022/12/09 01:05:22;;;;;;;37.75;22.50;;;4.50;84.60;;;;;;5054055;28;20028;-16
2022/12/09 01:07:48;;;;;;;44.45;25.88;;;4.60;84.70;;;;;;5054001;28;20366;-16
2022/12/09 01:10:14;;;;;;;32.38;20.33;;;4.60;84.70;;;;;;5053714;28;20358;-14
2022/12/09 01:12:40;;;;;;;38.80;23.00;;;4.60;84.70;;;;;;5036081;28;20032;-17
2022/12/09 01:15:09;;;;;;;34.13;21.60;;;4.60;84.80;;;;;;5053273;28;20033;-17
2022/12/09 01:17:36;;;;;;;38.38;22.60;;;4.70;84.60;;;;;;5053381;28;20029;-15
2022/12/09 01:20:04;;;;;;;37.28;24.55;;;4.60;84.60;;;;;;5053557;28;20021;-15
2022/12/09 01:22:30;;;;;;;40.05;24.20;;;4.60;84.70;;;;;;5052784;28;20120;-17
2022/12/09 01:24:56;;;;;;;38.83;22.73;;;4.70;84.70;;;;;;5053052;28;20025;-15
2022/12/09 01:27:22;;;;;;;40.45;25.23;;;4.60;84.70;;;;;;5053734;28;20055;-16
2022/12/09 01:29:48;;;;;;;48.20;28.42;;;4.70;84.70;;;;;;5053248;28;20020;-17
2022/12/09 01:32:14;;;;;;;45.20;27.83;;;4.60;84.60;;;;;;5053146;28;20029;-16
2022/12/09 01:34:40;;;;;;;44.75;27.52;;;4.60;84.60;;;;;;5053322;28;20060;-15
2022/12/09 01:37:06;;;;;;;43.22;26.92;;;4.60;84.50;;;;;;5052874;28;20427;-18
2022/12/09 01:39:31;;;;;;;46.00;28.63;;;4.60;84.60;;;;;;5053199;28;20040;-17
2022/12/09 01:42:01;;;;;;;44.72;26.85;;;4.60;84.70;;;;;;5053222;28;20090;-16
2022/12/09 01:44:27;;;;;;;40.25;25.40;;;4.50;84.70;;;;;;5053367;28;20132;-16
2022/12/09 01:46:58;;;;;;;42.03;26.98;;;4.50;84.80;;;;;;5053078;28;20520;-17
2022/12/09 01:49:40;;;;;;;47.17;27.15;;;4.50;84.90;;;;;;5053714;28;20021;-17
2022/12/09 01:52:06;;;;;;;43.05;25.98;;;4.50;84.90;;;;;;5052820;28;20053;-13
2022/12/09 01:54:33;;;;;;;41.63;25.98;;;4.50;85.00;;;;;;5053682;28;20087;-15
2022/12/09 01:56:59;;;;;;;35.15;23.13;;;4.50;85.00;;;;;;5052545;28;20044;-17
2022/12/09 01:59:26;;;;;;;35.15;22.75;;;4.50;85.20;;;;;;5052831;28;20017;-17
2022/12/09 02:01:56;;;;;;;33.88;21.95;;;4.40;85.20;;;;;;5052801;28;20116;-15
2022/12/09 02:04:22;;;;;;;36.17;22.02;;;4.40;85.20;;;;;;5052733;28;20025;-17
2022/12/09 02:06:48;;;;;;;36.92;22.45;;;4.50;85.30;;;;;;5052538;28;20044;-18
2022/12/09 02:09:14;;;;;;;35.00;22.13;;;4.40;85.40;;;;;;5052928;28;20025;-16
2022/12/09 02:12:02;;;;;;;32.67;21.20;;;4.50;85.50;;;;;;5052601;28;20078;-15
2022/12/09 02:14:28;;;;;;;28.20;16.52;;;4.50;85.60;;;;;;5052784;28;20037;-16
2022/12/09 02:17:35;;;;;;;33.00;19.38;;;4.50;85.70;;;;;;5053215;28;20098;-16
2022/12/09 02:20:04;;;;;;;30.33;19.88;;;4.60;85.70;;;;;;5050157;28;20039;-15
2022/12/09 02:22:41;;;;;;;27.60;17.30;;;4.60;85.70;;;;;;5052570;28;20082;-17
2022/12/09 02:25:25;;;;;;;34.55;20.23;;;4.60;85.60;;;;;;5034328;28;20021;-17
2022/12/09 02:28:21;;;;;;;32.00;19.95;;;4.60;85.50;;;;;;5052897;28;20048;-18
2022/12/09 02:31:35;;;;;;;35.58;19.50;;;4.70;85.40;;;;;;5052595;28;20376;-18
2022/12/09 02:34:13;;;;;;;30.50;17.42;;;4.60;85.30;;;;;;5034716;28;20056;-13
2022/12/09 02:37:08;;;;;;;30.13;17.40;;;4.60;85.40;;;;;;5056611;28;20013;-12
2022/12/09 02:39:45;;;;;;;31.70;19.88;;;4.60;85.40;;;;;;5049624;28;20365;-14
2022/12/09 02:42:15;;;;;;;29.80;18.85;;;4.70;85.40;;;;;;5056793;28;20082;-15
2022/12/09 02:44:44;;;;;;;29.90;18.52;;;4.60;85.50;;;;;;5056627;28;20036;-15
2022/12/09 02:47:13;;;;;;;30.38;19.08;;;4.60;85.70;;;;;;5056296;28;20021;-14
2022/12/09 02:49:40;;;;;;;31.10;20.33;;;4.60;85.80;;;;;;5056560;28;20110;-16
2022/12/09 02:52:07;;;;;;;26.70;16.52;;;4.60;85.70;;;;;;5056191;28;20053;-15
2022/12/09 02:54:35;;;;;;;27.52;16.30;;;4.50;85.70;;;;;;5057002;28;20033;-14
2022/12/09 02:57:10;;;;;;;27.88;16.27;;;4.50;85.70;;;;;;5055969;28;20056;-16
2022/12/09 02:59:36;;;;;;;24.33;16.20;;;4.50;85.70;;;;;;5057067;28;20079;-15
2022/12/09 03:02:13;;;;;;;24.50;15.90;;;4.50;85.80;;;;;;5056172;28;20025;-12
2022/12/09 03:04:44;;;;;;;24.77;15.88;;;4.50;85.90;;;;;;5056483;28;20029;-16
2022/12/09 03:07:59;;;;;;;25.00;14.95;;;4.50;86.10;;;;;;5055840;28;20109;-14
2022/12/09 03:10:48;;;;;;;21.88;13.82;;;4.40;86.20;;;;;;4936799;29;20439;-16
2022/12/09 03:13:42;;;;;;;23.38;13.60;;;4.40;86.10;;;;;;4920795;29;20460;-18
2022/12/09 03:16:34;;;;;;;21.75;13.77;;;4.40;86.20;;;;;;4936962;29;20032;-16
2022/12/09 03:19:21;;;;;;;24.08;14.63;;;4.40;86.10;;;;;;4933034;29;20147;-16
2022/12/09 03:21:49;;;;;;;20.67;12.55;;;4.40;86.10;;;;;;4936507;29;20036;-15
2022/12/09 03:24:21;;;;;;;22.73;13.77;;;4.40;86.10;;;;;;4936588;29;20031;-14
2022/12/09 03:26:49;;;;;;;22.48;13.48;;;4.40;86.10;;;;;;4936459;29;20083;-15
2022/12/09 03:29:20;;;;;;;23.13;13.48;;;4.40;86.00;;;;;;4920465;29;20403;-15
2022/12/09 03:31:47;;;;;;;20.15;11.98;;;4.50;86.00;;;;;;4936354;29;20028;-17
2022/12/09 03:34:18;;;;;;;19.17;13.23;;;4.50;86.00;;;;;;4936203;29;20040;-16
2022/12/09 03:36:47;;;;;;;22.40;12.43;;;4.50;86.10;;;;;;4936178;29;20031;-17
2022/12/09 03:39:17;;;;;;;19.17;12.57;;;4.50;86.10;;;;;;4936204;29;20178;-17
2022/12/09 03:41:48;;;;;;;20.50;11.68;;;4.50;85.90;;;;;;4936449;29;20035;-17
2022/12/09 03:44:28;;;;;;;20.27;12.30;;;4.60;85.90;;;;;;4936138;29;20032;-16
2022/12/09 03:46:54;;;;;;;19.40;11.60;;;4.60;85.90;;;;;;4980653;28;20175;-16
2022/12/09 03:49:20;;;;;;;21.58;12.77;;;4.60;85.80;;;;;;5055522;28;20033;-15
2022/12/09 03:52:00;;;;;;;20.92;12.57;;;4.60;85.90;;;;;;5054990;28;20619;-14
2022/12/09 03:54:32;;;;;;;20.17;12.48;;;4.60;85.80;;;;;;5055576;28;20116;-16
2022/12/09 03:56:59;;;;;;;19.70;12.15;;;4.60;85.80;;;;;;5054858;28;20039;-17
2022/12/09 03:59:29;;;;;;;20.35;12.63;;;4.60;85.80;;;;;;5055396;28;20021;-16
2022/12/09 04:01:56;;;;;;;19.90;11.73;;;4.60;85.80;;;;;;5055395;28;20456;-17
2022/12/09 04:04:22;;;;;;;17.77;11.60;;;4.60;85.80;;;;;;5055622;28;20028;-16
2022/12/09 04:06:52;;;;;;;18.00;11.35;;;4.60;85.80;;;;;;5055096;28;20115;-17
2022/12/09 04:09:18;;;;;;;16.52;10.73;;;4.60;85.80;;;;;;5055199;28;20029;-17
2022/12/09 04:11:44;;;;;;;15.63;10.10;;;4.70;85.90;;;;;;5054780;28;20384;-17
2022/12/09 04:14:10;;;;;;;17.80;9.93;;;4.70;85.90;;;;;;5054975;28;20037;-16
2022/12/09 04:16:36;;;;;;;13.30;9.00;;;4.70;85.90;;;;;;5055104;28;20083;-17
2022/12/09 04:19:02;;;;;;;17.23;9.95;;;4.70;85.90;;;;;;5054513;28;20032;-16
2022/12/09 04:21:28;;;;;;;13.98;8.18;;;4.80;86.00;;;;;;5055276;28;20023;-16
2022/12/09 04:23:54;;;;;;;15.52;8.57;;;4.80;86.00;;;;;;5054551;28;20459;-16
2022/12/09 04:26:21;;;;;;;14.02;8.20;;;4.80;86.00;;;;;;5054662;28;20108;-16
2022/12/09 04:28:48;;;;;;;16.27;9.95;;;4.80;86.00;;;;;;5054508;28;20101;-16
2022/12/09 04:31:16;;;;;;;15.05;9.30;;;4.90;86.00;;;;;;5054406;28;20021;-16
2022/12/09 04:33:42;;;;;;;15.57;8.60;;;4.90;86.00;;;;;;5054634;28;20041;-16
2022/12/09 04:36:11;;;;;;;12.77;7.75;;;4.90;86.00;;;;;;5055103;28;20482;-16
2022/12/09 04:38:38;;;;;;;11.88;7.63;;;4.90;86.00;;;;;;5054499;28;20032;-15
2022/12/09 04:41:04;;;;;;;10.95;6.75;;;5.00;86.00;;;;;;5053994;28;20166;-17
2022/12/09 04:43:30;;;;;;;13.05;8.13;;;5.00;86.00;;;;;;5055085;28;20103;-16
2022/12/09 04:46:04;;;;;;;14.82;8.07;;;5.00;86.10;;;;;;5054583;28;20385;-17
2022/12/09 04:48:30;;;;;;;13.07;8.20;;;5.00;86.00;;;;;;5054509;28;20025;-15
2022/12/09 04:50:58;;;;;;;13.65;8.55;;;5.00;86.00;;;;;;5053741;28;20623;-15
2022/12/09 04:53:25;;;;;;;12.38;7.80;;;5.00;86.00;;;;;;5053882;28;20033;-14
2022/12/09 04:56:02;;;;;;;13.23;8.32;;;5.00;86.00;;;;;;5053891;28;20041;-17
2022/12/09 04:58:28;;;;;;;13.07;7.93;;;5.00;85.90;;;;;;5053262;28;20496;-13
2022/12/09 05:00:54;;;;;;;10.00;6.20;;;5.00;85.90;;;;;;5053641;28;20029;-15
2022/12/09 05:03:20;;;;;;;14.15;8.23;;;5.00;86.00;;;;;;5053808;28;20124;-15
2022/12/09 05:05:46;;;;;;;11.95;7.40;;;4.90;86.00;;;;;;5053840;28;20108;-14
2022/12/09 05:08:11;;;;;;;12.13;7.55;;;5.00;86.00;;;;;;5053714;28;20057;-16
2022/12/09 05:10:37;;;;;;;10.43;6.70;;;5.00;86.10;;;;;;5053863;28;20028;-15
2022/12/09 05:13:03;;;;;;;11.35;6.60;;;5.10;86.10;;;;;;5053394;28;20068;-15
2022/12/09 05:15:37;;;;;;;10.50;6.43;;;5.10;86.00;;;;;;5053655;28;20025;-16
2022/12/09 05:18:03;;;;;;;13.18;8.40;;;5.10;86.00;;;;;;5053842;28;20021;-17
2022/12/09 05:20:29;;;;;;;11.48;7.57;;;5.10;86.10;;;;;;5053640;28;20075;-17
2022/12/09 05:22:55;;;;;;;12.90;7.70;;;5.20;86.00;;;;;;5053698;28;20032;-16
2022/12/09 05:25:22;;;;;;;12.15;7.10;;;5.20;85.80;;;;;;5053436;28;20021;-16
2022/12/09 05:27:48;;;;;;;11.80;7.30;;;5.20;85.80;;;;;;5053412;28;20033;-16
2022/12/09 05:30:14;;;;;;;12.52;8.00;;;5.20;85.80;;;;;;5054170;28;20098;-17
2022/12/09 05:32:40;;;;;;;12.30;7.70;;;5.20;85.80;;;;;;5053498;28;20315;-18
2022/12/09 05:35:06;;;;;;;13.60;7.15;;;5.20;85.80;;;;;;5053315;28;20025;-17
2022/12/09 05:37:32;;;;;;;14.43;8.75;;;5.20;85.70;;;;;;5053156;28;20166;-17
2022/12/09 05:39:58;;;;;;;15.20;9.05;;;5.20;85.70;;;;;;5053231;28;20036;-16
2022/12/09 05:42:24;;;;;;;14.55;8.30;;;5.20;85.70;;;;;;5053344;28;20025;-17
2022/12/09 05:44:50;;;;;;;16.25;9.43;;;5.20;85.70;;;;;;5052879;28;20044;-17
2022/12/09 05:47:16;;;;;;;16.38;10.43;;;5.20;85.70;;;;;;5053054;28;20032;-17
2022/12/09 05:49:42;;;;;;;16.08;9.38;;;5.20;85.70;;;;;;5053235;28;20104;-17
2022/12/09 05:52:09;;;;;;;14.27;8.55;;;5.10;85.70;;;;;;5052782;28;20052;-16
2022/12/09 05:54:35;;;;;;;12.63;7.35;;;5.10;85.80;;;;;;5053002;28;20032;-17
2022/12/09 05:57:02;;;;;;;14.38;8.05;;;5.10;85.80;;;;;;5052754;28;20096;-16
2022/12/09 05:59:28;;;;;;;13.35;7.65;;;5.10;85.80;;;;;;5035791;28;20063;-15
2022/12/09 06:01:54;;;;;;;13.93;7.35;;;5.10;85.80;;;;;;5052710;28;20081;-17
2022/12/09 06:04:20;;;;;;;12.45;8.07;;;5.10;85.80;;;;;;5052736;28;20027;-16
2022/12/09 06:06:46;;;;;;;13.75;7.97;;;5.10;85.80;;;;;;5034922;28;20075;-16
2022/12/09 06:09:12;;;;;;;14.27;7.75;;;5.20;85.90;;;;;;5035121;28;20428;-16
2022/12/09 06:11:39;;;;;;;11.75;7.40;;;5.20;85.80;;;;;;5052688;28;20066;-16
2022/12/09 06:14:08;;;;;;;13.07;7.40;;;5.20;85.90;;;;;;5052924;28;20104;-17
2022/12/09 06:16:35;;;;;;;11.52;6.50;;;5.10;85.90;;;;;;5052526;28;20527;-17
2022/12/09 06:19:01;;;;;;;10.85;5.88;;;5.10;86.00;;;;;;5052669;28;20086;-15
2022/12/09 06:21:27;;;;;;;12.30;6.20;;;5.20;86.10;;;;;;5052895;28;20025;-16
2022/12/09 06:23:53;;;;;;;12.52;6.93;;;5.10;86.40;;;;;;5053286;28;20024;-16
2022/12/09 06:26:22;;;;;;;10.25;5.95;;;5.10;86.50;;;;;;5052734;28;20033;-16
2022/12/09 06:28:48;;;;;;;12.13;6.38;;;5.10;86.30;;;;;;5052816;28;20453;-16
2022/12/09 06:31:14;;;;;;;10.63;6.43;;;5.10;86.20;;;;;;5052925;28;20029;-16
2022/12/09 06:33:40;;;;;;;8.95;5.32;;;5.10;86.10;;;;;;5052694;28;20037;-17
2022/12/09 06:36:06;;;;;;;9.60;6.10;;;5.10;86.20;;;;;;5052553;28;20022;-15
2022/12/09 06:38:33;;;;;;;9.90;5.55;;;5.10;86.30;;;;;;5052828;28;20025;-17
2022/12/09 06:40:59;;;;;;;11.10;5.80;;;5.00;86.30;;;;;;5052658;28;20025;-15
2022/12/09 06:43:25;;;;;;;9.63;5.88;;;5.10;86.30;;;;;;5052214;28;20163;-15
2022/12/09 06:45:51;;;;;;;9.38;5.75;;;5.10;86.40;;;;;;5052370;28;20061;-16
2022/12/09 06:48:17;;;;;;;9.07;5.53;;;5.10;86.30;;;;;;5034388;28;20037;-16
2022/12/09 06:50:43;;;;;;;10.77;6.28;;;5.10;86.40;;;;;;5052350;28;20029;-15
2022/12/09 06:53:09;;;;;;;8.50;5.47;;;5.10;86.40;;;;;;5051812;28;20051;-16
2022/12/09 06:55:35;;;;;;;11.52;6.07;;;5.00;86.50;;;;;;5052498;28;20025;-15
2022/12/09 06:58:01;;;;;;;10.52;6.40;;;5.00;86.70;;;;;;5052544;28;20396;-16
2022/12/09 07:00:27;;;;;;;9.90;5.90;;;5.00;86.70;;;;;;5052590;28;20048;-16
2022/12/09 07:02:53;;;;;;;9.55;5.88;;;5.10;86.60;;;;;;5052024;28;20108;-16
2022/12/09 07:05:19;;;;;;;11.18;5.90;;;5.10;86.70;;;;;;5052480;28;20060;-17
2022/12/09 07:07:52;;;;;;;9.00;5.43;;;5.10;86.70;;;;;;5052538;28;20060;-17
2022/12/09 07:10:19;;;;;;;10.57;6.15;;;5.10;86.70;;;;;;5052193;28;20023;-16
2022/12/09 07:12:45;;;;;;;11.32;6.05;;;5.10;86.70;;;;;;5052085;28;20028;-15
2022/12/09 07:15:11;;;;;;;10.38;6.18;;;5.10;86.60;;;;;;5051897;28;20032;-16
2022/12/09 07:17:37;;;;;;;10.63;5.60;;;5.10;86.60;;;;;;5052180;28;20373;-16
2022/12/09 07:20:03;;;;;;;11.77;6.95;;;5.20;86.40;;;;;;5052518;28;20032;-15
2022/12/09 07:22:32;;;;;;;12.18;6.72;;;5.20;86.40;;;;;;5055754;28;20029;-16
2022/12/09 07:24:58;;;;;;;9.63;6.18;;;5.20;86.40;;;;;;5056514;28;20025;-17
2022/12/09 07:27:24;;;;;;;11.70;6.53;;;5.30;86.40;;;;;;5055919;28;20029;-16
2022/12/09 07:29:50;;;;;;;10.05;5.97;;;5.30;86.30;;;;;;5055809;28;20583;-17
2022/12/09 07:32:16;;;;;;;11.52;6.50;;;5.20;86.50;;;;;;5055998;28;20032;-17
2022/12/09 07:34:42;;;;;;;11.20;6.22;;;5.20;87.00;;;;;;5055612;28;20029;-17
2022/12/09 07:37:08;;;;;;;11.55;6.35;;;5.20;87.00;;;;;;5055283;28;20059;-16
2022/12/09 07:39:33;;;;;;;12.43;7.18;;;5.20;86.90;;;;;;5056204;28;20052;-16
2022/12/09 07:41:59;;;;;;;15.18;7.25;;;5.20;87.20;;;;;;5055659;28;20108;-16
2022/12/09 07:44:27;;;;;;;13.30;8.25;;;5.20;87.30;;;;;;5055489;28;20615;-16
2022/12/09 07:46:54;;;;;;;13.65;6.80;;;5.20;87.60;;;;;;5055098;28;20035;-17
2022/12/09 07:49:20;;;;;;;13.80;8.25;;;5.20;87.80;;;;;;5055395;28;20048;-16
2022/12/09 07:51:46;;;;;;;15.48;9.52;;;5.20;87.60;;;;;;5054983;28;20052;-12
2022/12/09 07:54:14;;;;;;;15.85;9.73;;;5.20;87.50;;;;;;5055484;28;20033;-17
2022/12/09 07:56:41;;;;;;;17.45;11.60;;;5.20;87.30;;;;;;5055161;28;20431;-18
2022/12/09 07:59:09;;;;;;;13.85;8.75;;;5.20;87.20;;;;;;5037043;28;20117;-15
2022/12/09 08:01:35;;;;;;;17.45;9.73;;;5.10;87.20;;;;;;5055383;28;20520;-17
2022/12/09 08:04:03;;;;;;;14.65;9.68;;;5.20;87.30;;;;;;5055162;28;20067;-16
2022/12/09 08:06:30;;;;;;;14.88;10.35;;;5.10;87.00;;;;;;5054823;28;20032;-15
2022/12/09 08:09:00;;;;;;;14.15;9.38;;;5.10;87.00;;;;;;5054789;28;20060;-17
2022/12/09 08:11:28;;;;;;;14.07;9.43;;;5.20;86.80;;;;;;5054809;28;20021;-11
2022/12/09 08:13:59;;;;;;;14.55;8.90;;;5.20;86.60;;;;;;5055003;28;20098;-15
2022/12/09 08:16:25;;;;;;;13.73;8.65;;;5.20;86.70;;;;;;5054886;28;20021;-15
2022/12/09 08:18:53;;;;;;;15.48;8.90;;;5.20;86.70;;;;;;5054824;28;20114;-15
2022/12/09 08:21:25;;;;;;;14.55;9.05;;;5.20;86.80;;;;;;5054671;28;20025;-17
2022/12/09 08:23:51;;;;;;;11.65;7.63;;;5.10;86.80;;;;;;5054880;28;20465;-14
2022/12/09 08:26:20;;;;;;;12.60;7.60;;;5.10;86.80;;;;;;5036954;28;20032;-16
2022/12/09 08:28:46;;;;;;;12.45;7.75;;;5.10;86.90;;;;;;5036765;28;20111;-13
2022/12/09 08:31:15;;;;;;;19.52;10.48;;;5.10;86.90;;;;;;5054361;28;20032;-14
2022/12/09 08:33:41;;;;;;;14.55;8.38;;;5.10;87.00;;;;;;5053664;28;20029;-13
2022/12/09 08:36:23;;;;;;;13.93;7.93;;;5.10;87.70;;;;;;5055107;28;20415;-16
2022/12/09 08:38:49;;;;;;;13.38;7.53;;;5.10;88.00;;;;;;5054230;28;20059;-16
2022/12/09 08:41:37;;;;;;;10.80;6.85;;;5.00;87.90;;;;;;5054290;28;20116;-11
2022/12/09 08:44:12;;;;;;;12.48;6.45;;;5.00;87.80;;;;;;5053928;28;20586;-14
2022/12/09 08:46:42;;;;;;;9.98;6.40;;;5.00;87.80;;;;;;5054447;28;20078;-16
2022/12/09 08:49:08;;;;;;;12.70;6.97;;;5.00;87.90;;;;;;5054021;28;20101;-16
2022/12/09 08:51:35;;;;;;;13.02;7.75;;;5.00;87.90;;;;;;5053976;28;20052;-17
2022/12/09 08:54:02;;;;;;;10.40;6.85;;;5.10;88.10;;;;;;5054647;28;20037;-14
2022/12/09 08:56:29;;;;;;;11.82;7.25;;;5.10;88.40;;;;;;5054196;28;20025;-16
2022/12/09 08:58:55;;;;;;;12.43;7.50;;;5.10;88.60;;;;;;5053924;28;20078;-14
2022/12/09 09:01:30;;;;;;;11.75;6.43;;;5.10;88.80;;;;;;5053880;28;20075;-12
2022/12/09 09:03:58;;;;;;;10.93;6.90;;;5.10;88.80;;;;;;5053865;28;20027;-13
2022/12/09 09:06:24;;;;;;;10.52;6.65;;;5.10;88.60;;;;;;5053872;28;20036;-14
2022/12/09 09:08:50;;;;;;;12.45;7.32;;;5.20;88.50;;;;;;5053547;28;20192;-17
2022/12/09 09:11:18;;;;;;;14.57;6.60;;;5.20;88.30;;;;;;5053677;28;20104;-14
2022/12/09 09:13:47;;;;;;;10.98;6.20;;;5.20;88.30;;;;;;5054065;28;20120;-11
2022/12/09 09:16:19;;;;;;;11.88;6.93;;;5.20;88.10;;;;;;5035902;28;20090;-14
2022/12/09 09:18:45;;;;;;;15.43;8.73;;;5.30;88.00;;;;;;5053653;28;20028;-14
2022/12/09 09:21:12;;;;;;;13.70;8.20;;;5.30;88.00;;;;;;5053437;28;20040;-13
2022/12/09 09:23:39;;;;;;;14.32;7.75;;;5.30;87.80;;;;;;5053926;28;20013;-17
2022/12/09 09:26:11;;;;;;;15.55;9.02;;;5.30;87.80;;;;;;5053456;28;20033;-12
2022/12/09 09:28:37;;;;;;;53.50;22.60;;;5.30;87.80;;;;;;5053854;28;20028;-15
2022/12/09 09:31:06;;;;;;;28.52;16.08;;;5.30;87.70;;;;;;5053823;28;20048;-15
2022/12/09 09:33:32;;;;;;;17.48;10.57;;;5.30;87.80;;;;;;5053286;28;20076;-16
2022/12/09 09:36:00;;;;;;;17.20;10.00;;;5.30;87.80;;;;;;5053457;28;20096;-16
2022/12/09 09:38:27;;;;;;;16.05;8.93;;;5.30;87.70;;;;;;5053430;28;20473;-17
2022/12/09 09:40:54;;;;;;;50.50;23.52;;;5.30;87.90;;;;;;5052955;28;20025;-17
2022/12/09 09:43:25;;;;;;;38.80;20.83;;;5.30;88.10;;;;;;5052945;28;20021;-16
2022/12/09 09:45:53;;;;;;;17.10;9.15;;;5.40;88.20;;;;;;5053299;28;20468;-17
2022/12/09 09:48:27;;;;;;;21.02;10.60;;;5.40;88.10;;;;;;5053385;28;20044;-17
2022/12/09 09:51:14;;;;;;;20.95;11.23;;;5.50;88.00;;;;;;5052956;28;20033;-15
2022/12/09 09:53:41;;;;;;;22.15;12.25;;;5.50;87.90;;;;;;5035185;28;20036;-14
2022/12/09 09:56:28;;;;;;;31.40;17.40;;;5.60;88.30;;;;;;5035297;28;20055;-15
2022/12/09 09:59:20;;;;;;;17.95;11.27;;;5.60;88.80;;;;;;5052800;28;20048;-17
2022/12/09 10:02:17;;;;;;;58.33;29.45;;;5.60;88.90;;;;;;5024501;28;20037;-15
2022/12/09 10:05:12;;;;;;;20.08;11.32;;;5.60;88.70;;;;;;5027958;28;20029;-11
2022/12/09 10:07:43;;;;;;;14.48;9.27;;;5.60;88.50;;;;;;5053057;28;20393;-15
2022/12/09 10:10:20;;;;;;;16.77;10.07;;;5.60;88.30;;;;;;5052769;28;20108;-13
2022/12/09 10:13:05;;;;;;;23.67;15.35;;;5.70;88.20;;;;;;5052555;28;20090;-15
2022/12/09 10:15:44;;;;;;;17.67;11.18;;;5.70;88.20;;;;;;5053247;28;20045;-17
2022/12/09 10:18:25;;;;;;;17.13;11.00;;;5.70;88.20;;;;;;5052947;28;20441;-15
2022/12/09 10:20:51;;;;;;;12.95;8.00;;;5.70;88.50;;;;;;5052575;28;20033;-14
2022/12/09 10:23:17;;;;;;;17.63;10.88;;;5.70;88.60;;;;;;5052684;28;20538;-15
2022/12/09 10:25:55;;;;;;;13.45;8.88;;;5.70;88.70;;;;;;5052390;28;20021;-15
2022/12/09 10:28:29;;;;;;;18.60;12.07;;;5.80;88.60;;;;;;5052782;28;20029;-16
2022/12/09 10:30:56;;;;;;;13.52;8.77;;;5.80;88.60;;;;;;5052232;28;20112;-15
2022/12/09 10:33:29;;;;;;;13.48;7.80;;;5.80;88.60;;;;;;5052469;28;20029;-16
2022/12/09 10:35:55;;;;;;;16.58;9.38;;;5.80;88.70;;;;;;5053279;28;20025;-15
2022/12/09 10:38:22;;;;;;;12.50;7.65;;;5.80;88.70;;;;;;5052465;28;20044;-16
2022/12/09 10:43:33;;;;;;;9.68;6.75;;;5.80;88.60;;;;;;5052609;28;20032;-18
2022/12/09 10:44:23;;;;;;;12.18;8.65;;;5.80;88.60;;;;;;5052169;28;20449;-17
2022/12/09 10:47:15;;;;;;;;;;;5.80;88.70;;;;;;5052839;28;20025;-14
2022/12/09 10:49:41;;;;;;;12.90;7.93;;;5.80;88.80;;;;;;4952327;29;19918;-17
2022/12/09 10:52:08;;;;;;;13.00;8.45;;;5.80;88.70;;;;;;4952205;29;20082;-16
2022/12/09 10:54:38;;;;;;;15.20;9.52;;;5.80;88.70;;;;;;4952207;28;20079;-16
2022/12/09 10:57:05;;;;;;;13.70;8.82;;;5.80;88.70;;;;;;4955420;29;20027;-16
2022/12/09 10:59:33;;;;;;;13.93;8.85;;;5.80;88.70;;;;;;4956069;29;20035;-11
2022/12/09 11:02:18;;;;;;;11.18;7.50;;;5.90;88.60;;;;;;4956081;29;20031;-16
2022/12/09 11:04:45;;;;;;;9.98;6.90;;;5.90;88.50;;;;;;4956184;29;20139;-17
2022/12/09 11:07:11;;;;;;;12.05;6.80;;;5.90;88.60;;;;;;4955877;29;20039;-17
2022/12/09 11:09:42;;;;;;;19.17;10.73;;;5.90;88.70;;;;;;4955951;29;20083;-16
2022/12/09 11:12:30;;;;;;;14.75;9.82;;;5.90;88.70;;;;;;4955934;29;20031;-16
2022/12/09 11:15:00;;;;;;;11.52;7.35;;;6.00;88.80;;;;;;4955709;29;20035;-17
2022/12/09 11:17:33;;;;;;;11.82;7.13;;;6.00;88.80;;;;;;4956075;29;20422;-16
2022/12/09 11:20:05;;;;;;;11.47;6.90;;;6.00;88.80;;;;;;4955715;29;20480;-16
2022/12/09 11:22:39;;;;;;;10.10;6.60;;;6.10;88.80;;;;;;4939651;29;20455;-12
2022/12/09 11:25:22;;;;;;;9.38;5.88;;;6.10;88.60;;;;;;4955514;29;20019;-14
2022/12/09 11:27:55;;;;;;;9.77;5.72;;;6.10;88.40;;;;;;5035912;28;20021;-17
2022/12/09 11:30:26;;;;;;;8.90;5.57;;;6.10;88.30;;;;;;5036230;28;20029;-13
2022/12/09 11:32:55;;;;;;;9.88;5.88;;;6.00;88.40;;;;;;5034263;28;20443;-15
2022/12/09 11:35:32;;;;;;;8.88;5.65;;;6.00;88.40;;;;;;5035749;28;20036;-16
2022/12/09 11:38:02;;;;;;;9.75;5.45;;;6.00;88.40;;;;;;5035760;28;20381;-17
2022/12/09 11:40:30;;;;;;;9.93;5.18;;;6.00;88.40;;;;;;5035932;28;20116;-18
2022/12/09 11:43:02;;;;;;;11.10;6.10;;;6.00;88.50;;;;;;5035301;28;20473;-17
2022/12/09 11:45:35;;;;;;;14.60;9.10;;;6.00;88.50;;;;;;5034262;28;20060;-17
2022/12/09 11:48:14;;;;;;;11.27;6.70;;;6.00;88.60;;;;;;5035686;28;20026;-16
2022/12/09 11:50:49;;;;;;;13.32;7.22;;;6.10;88.60;;;;;;5035410;28;20120;-15
2022/12/09 11:53:26;;;;;;;14.38;9.07;;;6.10;88.70;;;;;;5054232;28;20381;-14
2022/12/09 11:56:14;;;;;;;10.35;5.32;;;6.10;88.70;;;;;;5055605;28;20078;-16
2022/12/09 11:58:53;;;;;;;12.18;7.07;;;6.10;88.60;;;;;;5055175;28;20079;-16
2022/12/09 12:01:32;;;;;;;11.07;6.25;;;6.10;88.60;;;;;;5055745;28;20025;-18
2022/12/09 12:04:04;;;;;;;11.68;6.90;;;6.10;88.50;;;;;;5055118;28;20041;-17
2022/12/09 12:07:13;;;;;;;8.57;5.85;;;6.20;88.50;;;;;;5055587;28;20059;-17
2022/12/09 12:09:47;;;;;;;11.63;6.80;;;6.20;88.50;;;;;;4954977;29;20102;-14
2022/12/09 12:12:13;;;;;;;;;;;6.20;88.60;;;;;;4955325;29;20063;-14
2022/12/09 12:14:42;;;;;;;10.10;5.82;;;6.30;88.70;;;;;;4954681;29;19961;-13
2022/12/09 12:17:35;;;;;;;10.23;6.28;;;6.30;88.70;;;;;;4954641;29;20027;-15
2022/12/09 12:20:03;;;;;;;11.55;7.30;;;6.40;88.60;;;;;;4955042;29;20035;-15
2022/12/09 12:22:50;;;;;;;10.55;6.15;;;6.40;88.50;;;;;;4954587;29;20031;-14
2022/12/09 12:25:45;;;;;;;9.57;6.13;;;6.40;88.50;;;;;;4954655;29;20051;-15
2022/12/09 12:28:35;;;;;;;13.63;6.93;;;6.40;88.40;;;;;;4955102;29;20031;-14
2022/12/09 12:31:01;;;;;;;11.40;6.03;;;6.40;88.40;;;;;;4954363;29;20039;-16
2022/12/09 12:33:45;;;;;;;11.88;6.82;;;6.40;88.50;;;;;;4954512;29;20040;-14
2022/12/09 12:36:38;;;;;;;11.25;7.07;;;6.40;88.40;;;;;;4954495;29;20197;-13
2022/12/09 12:39:33;;;;;;;12.43;8.10;;;6.40;88.50;;;;;;4954106;29;20035;-14
2022/12/09 12:42:18;;;;;;;11.43;7.90;;;6.50;88.50;;;;;;4954298;29;20032;-16
2022/12/09 12:47:38;;;;;;;;;;;6.50;88.60;;;;;;5055217;28;20044;-14
2022/12/09 12:50:31;;;;;;;16.52;10.48;;;6.50;88.50;;;;;;5054398;28;19928;-16
2022/12/09 12:53:12;;;;;;;16.48;9.45;;;6.50;88.50;;;;;;5053524;28;20041;-15
2022/12/09 12:56:07;;;;;;;18.73;12.25;;;6.60;88.60;;;;;;5054620;28;20025;-11
2022/12/09 12:58:48;;;;;;;17.45;10.57;;;6.60;88.60;;;;;;5054620;28;20025;-15
2022/12/09 13:01:36;;;;;;;16.55;11.05;;;6.70;88.60;;;;;;5054069;28;20040;-14
2022/12/09 13:04:19;;;;;;;17.42;10.82;;;6.70;88.50;;;;;;5054340;28;20033;-15
2022/12/09 13:06:48;;;;;;;11.30;8.05;;;6.60;88.50;;;;;;5053982;28;20136;-16